Time;durP1;ratioP1;P1;durP2;ratioP2;P2;SDS_P1;SDS_P2;PMS_P1;PMS_P2;Temp;Humidity;BMP_temperature;BMP_pressure;BME280_temperature;BME280_humidity;BME280_pressure;Samples;Min_cycle;Max_cycle;Signal;HPM_P1;HPM_P2
2023/12/14 00:01:13;;;;;;;17.30;16.60;;;;;;;-141.02;100.00;38711.00;5115497;28;20673;-75
2023/12/14 00:03:41;;;;;;;17.80;17.03;;;;;;;-141.02;100.00;38714.84;5115797;28;20197;-75
2023/12/14 00:06:08;;;;;;;18.30;17.50;;;;;;;-141.02;100.00;38707.19;5115382;28;20217;-75
2023/12/14 00:08:37;;;;;;;25.57;24.27;;;;;;;-141.02;100.00;38716.75;5115445;28;20204;-76
2023/12/14 00:11:05;;;;;;;18.87;18.07;;;;;;;-141.02;100.00;38730.19;5115443;28;20209;-76
2023/12/14 00:13:32;;;;;;;18.30;17.60;;;;;;;-141.02;100.00;38712.94;5115078;28;20200;-75
2023/12/14 00:15:59;;;;;;;16.67;16.07;;;;;;;-141.02;100.00;38751.28;5115075;28;20193;-76
2023/12/14 00:18:26;;;;;;;15.73;15.13;;;;;;;-141.02;100.00;38760.84;5115207;28;20189;-76
2023/12/14 00:20:55;;;;;;;15.50;14.90;;;;;;;-141.02;100.00;38745.53;5115162;28;20199;-75
2023/12/14 00:23:22;;;;;;;15.97;15.37;;;;;;;-141.02;100.00;38743.59;5115118;28;20214;-76
2023/12/14 00:25:51;;;;;;;16.00;15.40;;;;;;;-141.02;100.00;38781.94;5115023;28;20228;-75
2023/12/14 00:28:18;;;;;;;16.30;15.70;;;;;;;-141.02;100.00;38734.03;5115031;28;20250;-75
2023/12/14 00:30:45;;;;;;;15.30;14.70;;;;;;;-141.02;100.00;38737.84;5114863;28;20574;-75
2023/12/14 00:33:15;;;;;;;14.97;14.47;;;;;;;-141.02;100.00;38730.19;5114478;28;20697;-75
2023/12/14 00:35:45;;;;;;;15.40;14.90;;;;;;;-141.02;100.00;38795.38;5115179;28;20272;-75
2023/12/14 00:38:15;;;;;;;14.97;14.47;;;;;;;-141.02;100.00;38720.59;5114600;28;20674;-75
2023/12/14 00:40:42;;;;;;;15.97;15.37;;;;;;;-141.02;100.00;38760.84;5114424;28;20201;-75
2023/12/14 00:43:17;;;;;;;15.70;15.10;;;;;;;-141.02;100.00;38757.03;5114474;28;20197;-76
2023/12/14 00:45:45;;;;;;;14.93;14.43;;;;;;;-141.02;100.00;38762.78;5114283;28;20685;-76
2023/12/14 00:48:18;;;;;;;14.73;14.23;;;;;;;-141.02;100.00;38783.88;5114681;28;20197;-77
2023/12/14 00:50:47;;;;;;;14.30;13.80;;;;;;;-141.02;100.00;38749.34;5114259;28;20200;-76
2023/12/14 00:53:15;;;;;;;15.03;14.53;;;;;;;-141.02;100.00;38803.03;5114805;28;20201;-75
2023/12/14 00:55:48;;;;;;;16.30;15.70;;;;;;;-141.02;100.00;38691.84;5114253;28;20320;-76
2023/12/14 00:58:17;;;;;;;16.33;15.73;;;;;;;-141.02;100.00;38827.97;5114156;28;20193;-75
2023/12/14 01:00:47;;;;;;;17.60;16.90;;;;;;;-141.02;100.00;38799.22;5114518;28;20266;-75
2023/12/14 01:03:16;;;;;;;20.17;19.27;;;;;;;-141.02;100.00;38753.19;5114361;28;20197;-75
2023/12/14 01:05:46;;;;;;;17.93;17.13;;;;;;;-141.02;100.00;38760.84;5114258;28;20328;-75
2023/12/14 01:08:16;;;;;;;18.63;17.83;;;;;;;-141.02;100.00;38776.19;5114259;28;20193;-76
2023/12/14 01:10:46;;;;;;;18.40;17.60;;;;;;;-141.02;100.00;38760.84;5113949;28;20280;-75
2023/12/14 01:13:24;;;;;;;17.90;17.10;;;;;;;-141.02;100.00;38734.03;5114129;28;20189;-75
2023/12/14 01:15:51;;;;;;;19.50;18.70;;;;;;;-141.02;100.00;38776.19;5113822;28;20294;-75
2023/12/14 01:18:18;;;;;;;18.93;18.13;;;;;;;-141.02;100.00;38772.38;5114303;28;20200;-77
2023/12/14 01:20:46;;;;;;;18.93;18.13;;;;;;;-141.02;100.00;38760.84;5113713;28;20193;-75
2023/12/14 01:23:16;;;;;;;18.67;17.87;;;;;;;-141.02;100.00;38799.22;5113945;28;20197;-76
2023/12/14 01:25:43;;;;;;;19.47;18.67;;;;;;;-141.02;100.00;38780.03;5113837;28;20189;-75
2023/12/14 01:28:10;;;;;;;17.70;17.00;;;;;;;-141.02;100.00;38766.63;5113927;28;20221;-75
2023/12/14 01:30:38;;;;;;;17.30;16.60;;;;;;;-141.02;100.00;38783.88;5113479;28;20233;-76
2023/12/14 01:33:05;;;;;;;17.23;16.53;;;;;;;-141.02;100.00;38776.19;5113696;28;20198;-77
2023/12/14 01:35:32;;;;;;;20.10;19.30;;;;;;;-141.02;100.00;38780.03;5113661;28;20193;-76
2023/12/14 01:37:59;;;;;;;19.20;18.40;;;;;;;-141.02;100.00;38787.72;5113709;28;20189;-76
2023/12/14 01:40:26;;;;;;;19.17;18.37;;;;;;;-141.02;100.00;38776.19;5113643;28;20204;-77
2023/12/14 01:42:53;;;;;;;18.70;17.97;;;;;;;-141.02;100.00;38780.03;5113547;28;20189;-75
2023/12/14 01:45:20;;;;;;;17.80;17.10;;;;;;;-141.02;100.00;38791.53;5113157;28;20250;-75
2023/12/14 01:47:49;;;;;;;17.30;16.60;;;;;;;-141.02;100.00;38758.94;5113353;28;20262;-76
2023/12/14 01:50:17;;;;;;;15.40;14.90;;;;;;;-141.02;100.00;38797.28;5113165;28;20208;-75
2023/12/14 01:52:44;;;;;;;14.57;14.07;;;;;;;-141.02;100.00;38772.38;5113444;28;20197;-77
2023/12/14 01:55:11;;;;;;;13.87;13.37;;;;;;;-141.02;100.00;38780.03;5113252;28;20231;-76
2023/12/14 01:57:38;;;;;;;15.80;15.30;;;;;;;-141.02;100.00;38749.34;5113100;28;20288;-75
2023/12/14 02:00:06;;;;;;;15.87;15.27;;;;;;;-141.02;100.00;38772.38;5112961;28;20203;-75
2023/12/14 02:02:33;;;;;;;16.97;16.37;;;;;;;-141.02;100.00;38776.19;5113288;28;20192;-75
2023/12/14 02:05:02;;;;;;;15.40;14.90;;;;;;;-141.02;100.00;38795.38;5113438;28;20193;-77
2023/12/14 02:07:29;;;;;;;14.20;13.70;;;;;;;-141.02;100.00;38795.38;5113632;28;20678;-76
2023/12/14 02:09:56;;;;;;;15.30;14.80;;;;;;;-141.02;100.00;38787.72;5112805;28;20189;-76
2023/12/14 02:12:23;;;;;;;16.00;15.40;;;;;;;-141.02;100.00;38778.13;5112739;28;20189;-75
2023/12/14 02:14:50;;;;;;;15.33;14.73;;;;;;;-141.02;100.00;38758.94;5113033;28;20619;-75
2023/12/14 02:17:17;;;;;;;16.30;15.70;;;;;;;-141.02;100.00;38795.38;5112968;28;20193;-75
2023/12/14 02:19:53;;;;;;;16.53;15.93;;;;;;;-141.02;100.00;38760.84;5113067;28;20189;-75
2023/12/14 02:22:21;;;;;;;18.20;17.50;;;;;;;-141.02;100.00;38810.72;5112878;28;20203;-76
2023/12/14 02:24:52;;;;;;;18.53;17.83;;;;;;;-141.02;100.00;38781.94;5112843;28;20279;-76
2023/12/14 02:27:21;;;;;;;16.93;16.33;;;;;;;-141.02;100.00;38781.94;5112738;28;20307;-76
2023/12/14 02:29:48;;;;;;;16.47;15.87;;;;;;;-141.02;100.00;38772.38;5112806;28;20264;-76
2023/12/14 02:32:21;;;;;;;17.40;16.70;;;;;;;-141.02;100.00;38795.38;5112843;28;20229;-78
2023/12/14 02:34:51;;;;;;;16.60;16.00;;;;;;;-141.02;100.00;38772.38;5112787;28;20207;-76
2023/12/14 02:37:24;;;;;;;16.90;16.30;;;;;;;-141.02;100.00;38787.72;5113042;28;20193;-77
2023/12/14 02:39:52;;;;;;;15.83;15.23;;;;;;;-141.02;100.00;38745.53;5112452;28;20197;-76
2023/12/14 02:42:19;;;;;;;15.40;14.90;;;;;;;-141.02;100.00;38772.38;5112740;28;20197;-75
2023/12/14 02:44:54;;;;;;;15.00;14.50;;;;;;;-141.02;100.00;38860.56;5112248;28;20197;-74
2023/12/14 02:47:21;;;;;;;15.03;14.53;;;;;;;-141.02;100.00;38772.38;5112847;28;20227;-75
2023/12/14 02:49:54;;;;;;;14.43;13.93;;;;;;;-141.02;100.00;38768.53;5112343;28;20767;-75
2023/12/14 02:52:22;;;;;;;15.00;14.50;;;;;;;-141.02;100.00;38764.69;5112554;28;20200;-76
2023/12/14 02:54:49;;;;;;;15.50;15.00;;;;;;;-141.02;100.00;38764.69;5112024;28;20723;-76
2023/12/14 02:57:23;;;;;;;15.53;15.00;;;;;;;-141.02;100.00;38770.44;5115557;28;20240;-76
2023/12/14 02:59:50;;;;;;;15.50;15.00;;;;;;;-141.02;100.00;38772.38;5116406;28;20197;-77
2023/12/14 03:02:23;;;;;;;15.10;14.60;;;;;;;-141.02;100.00;38745.53;5116705;28;20197;-75
2023/12/14 03:04:50;;;;;;;15.13;14.63;;;;;;;-141.02;100.00;38755.09;5116676;28;20189;-76
2023/12/14 03:07:23;;;;;;;15.50;15.00;;;;;;;-141.02;100.00;38753.19;5116495;28;20706;-75
2023/12/14 03:09:52;;;;;;;15.97;15.37;;;;;;;-141.02;100.00;38764.69;5116603;28;20189;-75
2023/12/14 03:12:26;;;;;;;16.57;15.97;;;;;;;-141.02;100.00;38766.63;5116428;28;20189;-75
2023/12/14 03:14:53;;;;;;;16.23;15.63;;;;;;;-141.02;100.00;38743.59;5116499;28;20246;-76
2023/12/14 03:17:23;;;;;;;16.90;16.30;;;;;;;-141.02;100.00;38778.13;5116340;28;20193;-75
2023/12/14 03:19:53;;;;;;;15.60;15.00;;;;;;;-141.02;100.00;38745.53;5116149;28;20189;-77
2023/12/14 03:22:23;;;;;;;14.57;14.07;;;;;;;-141.02;100.00;38768.53;5116313;28;20197;-77
2023/12/14 03:24:53;;;;;;;14.63;14.13;;;;;;;-141.02;100.00;38791.53;5116302;28;20219;-76
2023/12/14 03:27:28;;;;;;;14.77;14.27;;;;;;;-141.02;100.00;38762.78;5115784;28;20221;-75
2023/12/14 03:29:56;;;;;;;14.30;13.80;;;;;;;-141.02;100.00;38749.34;5115891;28;20193;-76
2023/12/14 03:32:24;;;;;;;14.10;13.60;;;;;;;-141.02;100.00;38755.09;5116056;28;20284;-76
2023/12/14 03:34:51;;;;;;;14.30;13.80;;;;;;;-141.02;100.00;38757.03;5115902;28;20193;-75
2023/12/14 03:37:24;;;;;;;13.60;13.20;;;;;;;-141.02;100.00;38803.03;5116095;28;20248;-76
2023/12/14 03:39:57;;;;;;;13.63;13.23;;;;;;;-141.02;100.00;38753.19;5116096;28;20276;-75
2023/12/14 03:42:28;;;;;;;18.30;17.60;;;;;;;-141.02;100.00;38755.09;5115967;28;20197;-74
2023/12/14 03:44:55;;;;;;;16.97;16.37;;;;;;;-141.02;100.00;38751.28;5115641;28;20200;-76
2023/12/14 03:47:25;;;;;;;13.90;13.40;;;;;;;-141.02;100.00;38726.34;5115829;28;20382;-76
2023/12/14 03:49:55;;;;;;;13.90;13.40;;;;;;;-141.02;100.00;38730.19;5115771;28;20189;-76
2023/12/14 03:52:22;;;;;;;13.70;13.30;;;;;;;-141.02;100.00;38749.34;5115791;28;20200;-75
2023/12/14 03:54:55;;;;;;;13.40;13.00;;;;;;;-141.02;100.00;38753.19;5115369;28;20263;-77
2023/12/14 03:57:25;;;;;;;13.30;12.90;;;;;;;-141.02;100.00;38768.53;5115749;28;20193;-76
2023/12/14 03:59:56;;;;;;;13.10;12.70;;;;;;;-141.02;100.00;38734.03;5116009;28;20193;-77
2023/12/14 04:02:24;;;;;;;13.20;12.80;;;;;;;-141.02;100.00;38749.34;5115646;28;20193;-75
2023/12/14 04:04:57;;;;;;;12.83;12.43;;;;;;;-141.02;100.00;38753.19;5115527;28;20204;-75
2023/12/14 04:07:26;;;;;;;13.00;12.60;;;;;;;-141.02;100.00;38745.53;5114574;28;20231;-76
2023/12/14 04:09:56;;;;;;;12.57;12.17;;;;;;;-141.02;100.00;38785.78;5115487;28;20579;-77
2023/12/14 04:12:25;;;;;;;14.47;13.97;;;;;;;-141.02;100.00;38780.03;5115373;28;20577;-76
2023/12/14 04:15:00;;;;;;;17.57;16.80;;;;;;;-141.02;100.00;38758.94;5115394;28;20223;-77
2023/12/14 04:17:27;;;;;;;18.40;17.60;;;;;;;-141.02;100.00;38818.38;5115277;28;20309;-76
2023/12/14 04:19:56;;;;;;;20.10;19.10;;;;;;;-141.02;100.00;38803.03;5115278;28;20215;-75
2023/12/14 04:22:27;;;;;;;21.20;20.10;;;;;;;-141.02;100.00;38818.38;5115163;28;20197;-76
2023/12/14 04:24:56;;;;;;;21.38;20.27;;;;;;;-141.02;100.00;38860.56;5115123;28;20197;-76
2023/12/14 04:27:26;;;;;;;21.97;20.80;;;;;;;-141.02;100.00;38822.22;5114958;28;20227;-75
2023/12/14 04:29:55;;;;;;;20.70;19.60;;;;;;;-141.02;100.00;38902.75;5115134;28;20272;-75
2023/12/14 04:32:30;;;;;;;21.73;20.52;;;;;;;-141.02;100.00;38895.09;5114976;28;20585;-77
2023/12/14 04:34:57;;;;;;;21.35;20.05;;;;;;;-141.02;100.00;38839.47;5115022;28;20196;-77
2023/12/14 04:37:26;;;;;;;21.90;20.50;;;;;;;-141.02;100.00;38929.59;5114886;28;20220;-76
2023/12/14 04:39:56;;;;;;;21.30;19.90;;;;;;;-141.02;100.00;38933.44;5114616;28;20189;-76
2023/12/14 04:42:26;;;;;;;22.08;20.67;;;;;;;-141.02;100.00;38925.75;5114882;28;20221;-75
2023/12/14 04:44:53;;;;;;;22.15;20.75;;;;;;;-141.02;100.00;38969.88;5114740;28;20197;-77
2023/12/14 04:47:19;;;;;;;21.92;20.42;;;;;;;-141.02;100.00;38979.47;5114733;28;20311;-76
2023/12/14 04:49:48;;;;;;;22.23;20.73;;;;;;;-141.02;100.00;38985.22;5114649;28;20193;-75
2023/12/14 04:52:15;;;;;;;22.55;21.05;;;;;;;-141.02;100.00;38964.13;5114345;28;20197;-75
2023/12/14 04:54:42;;;;;;;22.02;20.48;;;;;;;-141.02;100.00;39040.81;5114363;28;20256;-75
2023/12/14 04:57:09;;;;;;;22.50;21.00;;;;;;;-141.02;100.00;38969.88;5114251;28;20197;-76
2023/12/14 04:59:36;;;;;;;21.83;20.33;;;;;;;-141.02;100.00;38990.97;5114509;28;20200;-77
2023/12/14 05:02:03;;;;;;;21.58;20.08;;;;;;;-141.02;100.00;38987.13;5114385;28;20200;-77
2023/12/14 05:04:30;;;;;;;21.65;20.15;;;;;;;-141.02;100.00;38979.47;5114678;28;20225;-76
2023/12/14 05:06:58;;;;;;;20.98;19.58;;;;;;;-141.02;100.00;38990.97;5114211;28;20272;-77
2023/12/14 05:09:25;;;;;;;21.37;19.87;;;;;;;-141.02;100.00;39012.06;5113975;28;20200;-77
2023/12/14 05:11:52;;;;;;;21.30;19.83;;;;;;;-141.02;100.00;39006.31;5114247;28;20272;-77
2023/12/14 05:14:19;;;;;;;23.45;21.95;;;;;;;-141.02;100.00;39002.47;5114173;28;20232;-75
2023/12/14 05:16:46;;;;;;;24.80;23.08;;;;;;;-141.02;100.00;39013.97;5113851;28;20198;-76
2023/12/14 05:19:13;;;;;;;20.40;18.90;;;;;;;-141.02;100.00;39017.81;5113102;28;20574;-75
2023/12/14 05:21:40;;;;;;;20.73;19.23;;;;;;;-141.02;100.00;39031.22;5114187;28;20656;-76
2023/12/14 05:24:09;;;;;;;21.33;19.73;;;;;;;-141.02;100.00;39052.31;5113733;28;20202;-77
2023/12/14 05:26:36;;;;;;;21.40;19.80;;;;;;;-141.02;100.00;39077.25;5113716;28;20189;-76
2023/12/14 05:29:03;;;;;;;20.83;19.23;;;;;;;-141.02;100.00;39071.50;5113893;28;20228;-77
2023/12/14 05:31:30;;;;;;;25.80;24.00;;;;;;;-141.02;100.00;39102.19;5113723;28;20284;-76
2023/12/14 05:33:57;;;;;;;21.05;19.45;;;;;;;-141.02;100.00;39125.19;5113844;28;20288;-77
2023/12/14 05:36:23;;;;;;;20.83;19.23;;;;;;;-141.02;100.00;39221.06;5113884;28;20224;-77
2023/12/14 05:38:50;;;;;;;20.55;19.05;;;;;;;-141.02;100.00;39175.06;5113742;28;20279;-77
2023/12/14 05:41:19;;;;;;;21.35;19.75;;;;;;;-141.02;100.00;39192.31;5113727;28;20280;-77
2023/12/14 05:43:45;;;;;;;24.75;22.95;;;;;;;-141.02;100.00;39215.31;5113613;28;20224;-75
2023/12/14 05:46:21;;;;;;;25.50;23.65;;;;;;;-141.02;100.00;39234.50;5113308;28;20678;-76
2023/12/14 05:48:49;;;;;;;20.73;19.13;;;;;;;-141.02;100.00;39259.44;5113419;28;20223;-75
2023/12/14 05:51:28;;;;;;;20.88;19.17;;;;;;;-141.02;100.00;39315.03;5113337;28;20280;-74
2023/12/14 05:53:55;;;;;;;20.85;19.25;;;;;;;-141.02;100.00;39343.81;5113319;28;20239;-76
2023/12/14 05:56:23;;;;;;;20.38;18.77;;;;;;;-141.02;100.00;39397.50;5113165;28;20665;-76
2023/12/14 05:58:50;;;;;;;20.10;18.50;;;;;;;-141.02;100.00;39489.56;5113315;28;20197;-75
2023/12/14 06:01:18;;;;;;;20.77;18.98;;;;;;;-141.02;100.00;39635.31;5113235;28;20235;-75
2023/12/14 06:03:45;;;;;;;20.85;19.15;;;;;;;-141.02;99.17;39761.91;5112963;28;20200;-75
2023/12/14 06:06:13;;;;;;;21.40;19.70;;;;;;;-141.02;99.98;39830.94;5112888;28;20203;-75
2023/12/14 06:08:40;;;;;;;20.35;18.85;;;;;;;-141.02;100.00;39934.53;5112819;28;20716;-75
2023/12/14 06:11:07;;;;;;;20.70;19.10;;;;;;;-141.02;100.00;40026.59;5113119;28;20272;-76
2023/12/14 06:13:35;;;;;;;20.60;19.00;;;;;;;-141.02;100.00;40064.97;5113140;28;20189;-76
2023/12/14 06:16:02;;;;;;;21.52;19.83;;;;;;;-141.02;100.00;40172.38;5113009;28;20277;-77
2023/12/14 06:18:29;;;;;;;21.25;19.58;;;;;;;-141.02;100.00;40203.06;5113052;28;20291;-75
2023/12/14 06:20:56;;;;;;;21.13;19.45;;;;;;;-141.02;100.00;40298.97;5113003;28;20280;-76
2023/12/14 06:23:25;;;;;;;21.40;19.70;;;;;;;-141.02;100.00;40298.97;5112919;28;20193;-75
2023/12/14 06:25:52;;;;;;;21.40;19.70;;;;;;;-141.02;100.00;40356.53;5112682;28;20193;-76
2023/12/14 06:28:19;;;;;;;20.85;19.15;;;;;;;-141.02;100.00;40352.69;5112891;28;20235;-76
2023/12/14 06:30:47;;;;;;;20.67;18.98;;;;;;;-141.02;100.00;40402.56;5112321;28;20189;-76
2023/12/14 06:33:14;;;;;;;20.67;19.08;;;;;;;-141.02;100.00;40513.84;5112506;28;20726;-76
2023/12/14 06:35:41;;;;;;;21.45;19.75;;;;;;;-141.02;96.99;40525.34;5112449;28;20575;-76
2023/12/14 06:38:08;;;;;;;26.90;24.90;;;;;;;-141.02;95.84;40571.41;5112445;28;20565;-75
2023/12/14 06:40:36;;;;;;;33.88;31.58;;;;;;;-141.02;95.99;40563.72;5112373;28;20683;-76
2023/12/14 06:43:05;;;;;;;36.92;34.47;;;;;;;-141.02;94.96;40613.59;5112447;28;20284;-76
2023/12/14 06:45:32;;;;;;;20.98;19.27;;;;;;;-141.02;95.85;40619.34;5112668;28;20204;-76
2023/12/14 06:48:00;;;;;;;22.00;20.20;;;;;;;-141.02;90.66;40644.28;5112633;28;20229;-75
2023/12/14 06:50:27;;;;;;;28.55;26.50;;;;;;;-141.02;92.76;40625.13;5112566;28;20640;-76
2023/12/14 06:52:54;;;;;;;21.92;20.23;;;;;;;-141.02;93.09;40640.47;5112581;28;20632;-76
2023/12/14 06:55:21;;;;;;;21.35;19.65;;;;;;;-141.02;94.00;40640.47;5112280;28;20271;-76
2023/12/14 06:57:48;;;;;;;22.20;20.60;;;;;;;-141.02;95.04;40680.75;5112502;28;20225;-76
2023/12/14 07:00:16;;;;;;;22.52;20.83;;;;;;;-141.02;95.13;40701.84;5112703;28;20204;-75
2023/12/14 07:02:43;;;;;;;22.20;20.50;;;;;;;-141.02;95.43;40703.78;5112283;28;20197;-76
2023/12/14 07:05:11;;;;;;;22.85;21.10;;;;;;;-141.02;94.61;40747.91;5112164;28;20785;-75
2023/12/14 07:07:38;;;;;;;22.17;20.48;;;;;;;-141.02;93.68;40757.50;5112419;28;20200;-76
2023/12/14 07:10:09;;;;;;;22.48;20.77;;;;;;;-141.02;93.52;40740.22;5112425;28;20272;-75
2023/12/14 07:12:36;;;;;;;22.40;20.50;;;;;;;-141.02;85.53;40793.94;5112496;28;20193;-75
2023/12/14 07:15:03;;;;;;;22.60;20.80;;;;;;;-141.02;88.58;40811.22;5112439;28;20193;-76
2023/12/14 07:17:30;;;;;;;23.45;21.55;;;;;;;-141.02;90.40;40832.31;5112455;28;20721;-75
2023/12/14 07:19:57;;;;;;;23.65;21.75;;;;;;;-141.02;88.98;40878.38;5112371;28;20275;-75
2023/12/14 07:22:25;;;;;;;24.15;22.20;;;;;;;-141.02;85.99;40886.03;5112551;28;20193;-76
2023/12/14 07:24:52;;;;;;;23.85;21.95;;;;;;;-141.02;85.84;40847.66;5112342;28;20190;-76
2023/12/14 07:27:19;;;;;;;23.55;21.65;;;;;;;-141.02;88.40;40847.66;5112229;28;20196;-75
2023/12/14 07:29:46;;;;;;;24.10;22.20;;;;;;;-141.02;88.54;40916.75;5112285;28;20320;-75
2023/12/14 07:32:13;;;;;;;27.73;25.73;;;;;;;-141.02;87.47;40895.63;5112234;28;20280;-76
2023/12/14 07:34:40;;;;;;;23.73;21.83;;;;;;;-141.02;85.33;40970.47;5111861;28;20201;-75
2023/12/14 07:37:07;;;;;;;23.48;21.58;;;;;;;-141.02;84.27;40957.03;5112498;28;20276;-75
2023/12/14 07:39:35;;;;;;;29.77;27.77;;;;;;;-141.02;84.52;40974.28;5112129;28;20232;-75
2023/12/14 07:42:02;;;;;;;31.17;29.08;;;;;;;-141.02;81.70;40874.53;5113153;28;20192;-75
2023/12/14 07:44:29;;;;;;;23.70;21.80;;;;;;;-141.02;86.94;40857.25;5115981;28;20215;-75
2023/12/14 07:46:57;;;;;;;26.50;24.40;;;;;;;-141.02;90.83;40836.16;5115647;28;20193;-75
2023/12/14 07:49:24;;;;;;;25.65;23.65;;;;;;;-141.02;90.54;40878.38;5115776;28;20239;-75
2023/12/14 07:51:51;;;;;;;23.15;21.25;;;;;;;-141.02;96.31;40893.72;5115460;28;20201;-75
2023/12/14 07:54:18;;;;;;;22.58;20.80;;;;;;;-141.02;100.00;40882.19;5115552;28;20225;-76
2023/12/14 07:56:46;;;;;;;25.05;23.25;;;;;;;-141.02;100.00;40958.94;5115418;28;20647;-75
2023/12/14 07:59:14;;;;;;;32.03;29.97;;;;;;;-141.02;100.00;41012.66;5115688;28;20276;-75
2023/12/14 08:01:41;;;;;;;35.67;33.30;;;;;;;-141.02;100.00;41085.59;5115587;28;20622;-75
2023/12/14 08:04:10;;;;;;;26.50;24.70;;;;;;;-141.02;100.00;41006.91;5115275;28;20578;-75
2023/12/14 08:06:39;;;;;;;26.55;24.75;;;;;;;-141.02;100.00;41020.34;5115545;28;20196;-75
2023/12/14 08:09:06;;;;;;;22.13;20.42;;;;;;;-141.02;100.00;41077.91;5115413;28;20282;-75
2023/12/14 08:11:34;;;;;;;22.42;20.73;;;;;;;-141.02;100.00;41170.00;5115700;28;20197;-75
2023/12/14 08:14:02;;;;;;;27.35;25.35;;;;;;;-141.02;100.00;41208.38;5115364;28;20225;-76
2023/12/14 08:16:29;;;;;;;22.00;20.30;;;;;;;-141.02;100.00;41162.34;5115349;28;20247;-75
2023/12/14 08:18:56;;;;;;;22.13;20.42;;;;;;;-141.02;100.00;41227.56;5115460;28;20231;-75
2023/12/14 08:21:23;;;;;;;25.15;23.35;;;;;;;-141.02;100.00;41102.84;5115289;28;20215;-75
2023/12/14 08:23:50;;;;;;;25.05;23.27;;;;;;;-141.02;100.00;41089.41;5114964;28;20279;-75
2023/12/14 08:26:17;;;;;;;22.73;21.02;;;;;;;-141.02;100.00;41200.72;5114792;28;20546;-75
2023/12/14 08:28:44;;;;;;;21.92;20.33;;;;;;;-141.02;100.00;41223.72;5114760;28;20229;-75
2023/12/14 08:31:13;;;;;;;29.23;27.23;;;;;;;-141.02;100.00;41070.22;5114723;28;20337;-75
2023/12/14 08:33:42;;;;;;;24.92;23.23;;;;;;;-141.02;100.00;41089.41;5114678;28;20690;-75
2023/12/14 08:36:09;;;;;;;20.85;19.35;;;;;;;-141.02;100.00;41039.53;5114989;28;20203;-75
2023/12/14 08:38:36;;;;;;;20.65;19.15;;;;;;;-141.02;100.00;41077.91;5114827;28;20197;-75
2023/12/14 08:41:04;;;;;;;26.45;24.75;;;;;;;-141.02;100.00;41173.84;5114570;28;20678;-75
2023/12/14 08:43:31;;;;;;;27.43;25.53;;;;;;;-141.02;100.00;41214.13;5114754;28;20285;-75
2023/12/14 08:45:58;;;;;;;20.98;19.48;;;;;;;-141.02;100.00;41170.00;5114482;28;20203;-75
2023/12/14 08:48:26;;;;;;;20.20;18.70;;;;;;;-141.02;100.00;41127.78;5114692;28;20316;-74
2023/12/14 08:50:55;;;;;;;21.10;19.60;;;;;;;-141.02;100.00;41254.44;5114285;28;20546;-75
2023/12/14 08:53:22;;;;;;;20.17;18.77;;;;;;;-141.02;100.00;41198.78;5114554;28;20208;-75
2023/12/14 08:55:48;;;;;;;20.35;18.95;;;;;;;-141.02;100.00;41248.69;5114104;28;20232;-74
2023/12/14 08:58:15;;;;;;;20.02;18.63;;;;;;;-141.02;100.00;41210.31;5114579;28;20280;-75
2023/12/14 09:00:42;;;;;;;19.77;18.40;;;;;;;-141.02;100.00;41208.38;5114536;28;20246;-75
2023/12/14 09:03:10;;;;;;;20.10;18.70;;;;;;;-141.02;100.00;41281.31;5114436;28;20255;-75
2023/12/14 09:05:41;;;;;;;20.13;18.73;;;;;;;-141.02;100.00;41300.50;5114364;28;20197;-75
2023/12/14 09:08:09;;;;;;;19.17;17.85;;;;;;;-141.02;100.00;41340.78;5114484;28;20186;-75
2023/12/14 09:10:36;;;;;;;19.00;17.60;;;;;;;-141.02;100.00;41300.50;5114372;28;20225;-74
2023/12/14 09:13:04;;;;;;;20.50;18.90;;;;;;;-141.02;100.00;41158.50;5114258;28;20224;-74
2023/12/14 09:15:31;;;;;;;25.55;23.75;;;;;;;-141.02;100.00;41074.06;5114252;28;20199;-75
2023/12/14 09:17:58;;;;;;;37.92;35.35;;;;;;;-141.02;100.00;41010.75;5114139;28;20189;-74
2023/12/14 09:20:25;;;;;;;19.38;17.98;;;;;;;-141.02;100.00;41058.72;5114100;28;20200;-74
2023/12/14 09:22:53;;;;;;;19.70;18.30;;;;;;;-141.02;100.00;41005.00;5113720;28;20197;-74
2023/12/14 09:25:20;;;;;;;26.50;24.80;;;;;;;-141.02;100.00;40951.28;5113681;28;20204;-74
2023/12/14 09:27:47;;;;;;;26.57;24.87;;;;;;;-141.02;100.00;41031.84;5113993;28;20204;-74
2023/12/14 09:30:14;;;;;;;18.20;17.00;;;;;;;-141.02;100.00;41066.41;5113831;28;20316;-74
2023/12/14 09:32:41;;;;;;;18.20;17.00;;;;;;;-141.02;100.00;41051.03;5113835;28;20193;-74
2023/12/14 09:35:09;;;;;;;24.27;22.88;;;;;;;-141.02;100.00;41081.75;5113790;28;20279;-74
2023/12/14 09:37:36;;;;;;;41.22;38.53;;;;;;;-141.02;100.00;41143.16;5113911;28;20254;-75
2023/12/14 09:40:05;;;;;;;17.80;16.70;;;;;;;-141.02;100.00;41281.31;5114470;28;20197;-74
2023/12/14 09:42:37;;;;;;;18.50;17.30;;;;;;;-141.02;100.00;41239.09;5113343;28;20702;-74
2023/12/14 09:45:07;;;;;;;24.75;23.15;;;;;;;-141.02;100.00;41258.28;5113386;28;20272;-74
2023/12/14 09:47:35;;;;;;;19.23;17.92;;;;;;;-141.02;100.00;41308.16;5113526;28;20193;-74
2023/12/14 09:50:03;;;;;;;19.10;17.80;;;;;;;-141.02;100.00;41265.94;5113456;28;20319;-74
2023/12/14 09:52:30;;;;;;;26.65;24.88;;;;;;;-141.02;100.00;41252.53;5113354;28;20592;-74
2023/12/14 09:54:57;;;;;;;26.30;24.60;;;;;;;-141.02;100.00;41275.53;5113319;28;20293;-74
2023/12/14 09:57:25;;;;;;;20.30;18.90;;;;;;;-141.02;100.00;41193.03;5113368;28;20284;-74
2023/12/14 09:59:53;;;;;;;20.65;19.15;;;;;;;-141.02;100.00;41043.38;5112969;28;20246;-74
2023/12/14 10:02:20;;;;;;;20.25;18.85;;;;;;;-141.02;100.00;41005.00;5113300;28;20197;-74
2023/12/14 10:04:48;;;;;;;20.58;19.17;;;;;;;-141.02;100.00;41010.75;5112410;28;20649;-74
2023/12/14 10:07:16;;;;;;;20.27;18.77;;;;;;;-141.02;100.00;40932.09;5113243;28;20193;-74
2023/12/14 10:09:43;;;;;;;19.58;18.17;;;;;;;-141.02;100.00;40989.66;5112869;28;20224;-74
2023/12/14 10:12:10;;;;;;;20.30;18.90;;;;;;;-141.02;100.00;40983.88;5113424;28;20220;-74
2023/12/14 10:14:39;;;;;;;20.17;18.77;;;;;;;-141.02;100.00;40989.66;5113125;28;20280;-74
2023/12/14 10:17:19;;;;;;;19.67;18.38;;;;;;;-141.02;100.00;41052.97;5112996;28;20220;-74
2023/12/14 10:19:47;;;;;;;20.08;18.67;;;;;;;-141.02;100.00;41033.78;5113131;28;20532;-74
2023/12/14 10:22:17;;;;;;;20.13;18.67;;;;;;;-141.02;100.00;41024.19;5112604;28;20197;-74
2023/12/14 10:24:45;;;;;;;19.38;17.98;;;;;;;-141.02;100.00;40974.28;5113266;28;20193;-74
2023/12/14 10:27:12;;;;;;;19.50;18.20;;;;;;;-141.02;100.00;40924.41;5112778;28;20220;-74
2023/12/14 10:29:41;;;;;;;19.02;17.73;;;;;;;-141.02;100.00;40701.84;5112786;28;20264;-74
2023/12/14 10:32:11;;;;;;;19.05;17.75;;;;;;;-141.02;100.00;40962.78;5112549;28;20197;-74
2023/12/14 10:34:38;;;;;;;18.65;17.35;;;;;;;-141.02;100.00;40972.38;5112504;28;20193;-74
2023/12/14 10:37:07;;;;;;;18.63;17.35;;;;;;;-141.02;100.00;41022.25;5112535;28;20232;-74
2023/12/14 10:39:35;;;;;;;18.80;17.50;;;;;;;-141.02;100.00;40993.47;5112691;28;20196;-74
2023/12/14 10:42:04;;;;;;;18.50;17.30;;;;;;;-141.02;100.00;40916.75;5112729;28;20261;-74
2023/12/14 10:44:35;;;;;;;18.60;17.35;;;;;;;-141.02;100.00;40920.56;5112661;28;20192;-74
2023/12/14 10:47:05;;;;;;;18.33;17.13;;;;;;;-141.02;100.00;40886.03;5112458;28;20307;-74
2023/12/14 10:49:34;;;;;;;17.95;16.75;;;;;;;-141.02;100.00;40866.84;5112495;28;20221;-74
2023/12/14 10:52:03;;;;;;;17.88;16.70;;;;;;;-141.02;100.00;40870.69;5112681;28;20197;-74
2023/12/14 10:54:33;;;;;;;17.35;16.25;;;;;;;-141.02;100.00;40836.16;5112311;28;20236;-74
2023/12/14 10:57:03;;;;;;;17.85;16.75;;;;;;;-141.02;100.00;40824.63;5112540;28;20647;-74
2023/12/14 10:59:33;;;;;;;30.40;28.70;;;;;;;-141.02;100.00;40721.03;5112549;28;20193;-74